createdAt,value
2023-03-17T00:01:56.166Z,1.17
2023-03-17T00:04:27.702Z,0.93
2023-03-17T00:06:58.013Z,1.20
2023-03-17T00:09:24.998Z,1.55
2023-03-17T00:11:51.999Z,1.17
2023-03-17T00:14:20.090Z,1.10
2023-03-17T00:16:52.727Z,0.80
2023-03-17T00:19:32.425Z,1.00
2023-03-17T00:22:01.159Z,1.30
2023-03-17T00:24:31.177Z,1.10
2023-03-17T00:26:58.250Z,1.10
2023-03-17T00:29:25.615Z,1.15
2023-03-17T00:31:53.287Z,1.23
2023-03-17T00:34:23.469Z,1.10
2023-03-17T00:36:52.026Z,1.23
2023-03-17T00:39:19.788Z,1.33
2023-03-17T00:41:50.027Z,1.48
2023-03-17T00:44:18.723Z,1.35
2023-03-17T00:46:46.755Z,1.20
2023-03-17T00:49:20.335Z,1.25
2023-03-17T00:51:48.161Z,1.00
2023-03-17T00:54:16.088Z,1.10
2023-03-17T00:56:44.363Z,1.10
2023-03-17T00:59:30.664Z,1.25
2023-03-17T01:01:58.264Z,1.23
2023-03-17T01:04:26.849Z,1.10
2023-03-17T01:06:54.160Z,1.25
2023-03-17T01:09:25.996Z,1.27
2023-03-17T01:11:53.631Z,0.82
2023-03-17T01:14:20.552Z,1.13
2023-03-17T01:16:47.942Z,1.45
2023-03-17T01:19:15.555Z,1.20
2023-03-17T01:21:43.522Z,1.27
2023-03-17T01:24:13.014Z,1.20
2023-03-17T01:26:40.511Z,1.10
2023-03-17T01:29:08.301Z,1.00
2023-03-17T01:31:39.295Z,1.50
2023-03-17T01:34:06.414Z,1.30
2023-03-17T01:36:34.410Z,1.40
2023-03-17T01:39:01.752Z,1.17
2023-03-17T01:41:28.698Z,1.35
2023-03-17T01:43:55.718Z,1.33
2023-03-17T01:46:22.668Z,1.55
2023-03-17T01:49:07.814Z,1.58
2023-03-17T01:52:09.492Z,1.55
2023-03-17T01:54:56.286Z,1.20
2023-03-17T01:57:44.915Z,1.13
2023-03-17T02:00:16.255Z,1.33
2023-03-17T02:02:46.485Z,1.30
2023-03-17T02:05:18.017Z,1.30
2023-03-17T02:07:45.869Z,1.13
2023-03-17T02:10:17.994Z,0.90
2023-03-17T02:12:48.340Z,1.27
2023-03-17T02:15:15.650Z,1.20
2023-03-17T02:17:42.566Z,1.20
2023-03-17T02:20:18.885Z,1.38
2023-03-17T02:22:52.588Z,1.25
2023-03-17T02:25:20.551Z,1.10
2023-03-17T02:27:53.454Z,1.40
2023-03-17T02:30:22.871Z,1.20
2023-03-17T02:32:50.206Z,1.05
2023-03-17T02:35:25.226Z,1.35
2023-03-17T02:37:52.210Z,1.13
2023-03-17T02:40:20.796Z,1.08
2023-03-17T02:42:48.221Z,1.33
2023-03-17T02:45:15.538Z,1.15
2023-03-17T02:47:42.791Z,1.13
2023-03-17T02:50:17.868Z,1.20
2023-03-17T02:52:45.652Z,1.38
2023-03-17T02:55:12.631Z,1.00
2023-03-17T02:57:41.183Z,1.25
2023-03-17T03:00:11.897Z,1.38
2023-03-17T03:02:39.258Z,1.30
2023-03-17T03:05:10.105Z,1.20
2023-03-17T03:07:37.063Z,1.30
2023-03-17T03:10:05.655Z,1.10
2023-03-17T03:12:33.432Z,1.67
2023-03-17T03:15:00.823Z,1.25
2023-03-17T03:17:27.876Z,1.35
2023-03-17T03:19:55.420Z,1.20
2023-03-17T03:22:22.447Z,1.25
2023-03-17T03:24:49.364Z,1.58
2023-03-17T03:27:17.132Z,1.83
2023-03-17T03:29:44.166Z,1.10
2023-03-17T03:32:11.312Z,1.10
2023-03-17T03:34:38.543Z,1.33
2023-03-17T03:37:06.101Z,1.70
2023-03-17T03:39:35.048Z,1.60
2023-03-17T03:42:02.018Z,1.20
2023-03-17T03:44:28.892Z,1.30
2023-03-17T03:46:56.167Z,1.48
2023-03-17T03:49:29.239Z,1.40
2023-03-17T03:51:57.930Z,1.33
2023-03-17T03:54:25.656Z,1.25
2023-03-17T03:56:52.684Z,1.40
2023-03-17T03:59:19.681Z,1.50
2023-03-17T04:01:46.707Z,1.50
2023-03-17T04:04:14.853Z,1.48
2023-03-17T04:06:41.997Z,1.58
2023-03-17T04:09:10.817Z,1.50
2023-03-17T04:11:37.945Z,1.52
2023-03-17T04:14:06.519Z,1.63
2023-03-17T04:16:33.784Z,1.33
2023-03-17T04:19:01.189Z,1.60
2023-03-17T04:21:28.246Z,1.40
2023-03-17T04:23:55.414Z,1.80
2023-03-17T04:26:23.172Z,1.40
2023-03-17T04:28:52.339Z,1.40
2023-03-17T04:31:19.508Z,1.70
2023-03-17T04:33:46.612Z,2.00
2023-03-17T04:36:24.120Z,1.75
2023-03-17T04:38:52.028Z,1.40
2023-03-17T04:41:19.077Z,1.45
2023-03-17T04:43:47.436Z,1.40
2023-03-17T04:46:15.779Z,1.55
2023-03-17T04:48:42.771Z,1.55
2023-03-17T04:51:11.679Z,1.60
2023-03-17T04:53:39.036Z,1.42
2023-03-17T04:56:06.525Z,1.33
2023-03-17T04:58:34.973Z,1.92
2023-03-17T05:01:03.830Z,2.00
2023-03-17T05:03:33.271Z,1.27
2023-03-17T05:06:01.996Z,1.50
2023-03-17T05:08:29.044Z,1.30
2023-03-17T05:10:57.448Z,1.42
2023-03-17T05:13:26.610Z,1.77
2023-03-17T05:15:55.090Z,2.15
2023-03-17T05:18:26.180Z,1.63
2023-03-17T05:20:53.811Z,1.55
2023-03-17T05:23:22.400Z,1.60
2023-03-17T05:25:49.697Z,1.45
2023-03-17T05:28:16.842Z,1.55
2023-03-17T05:30:43.942Z,1.70
2023-03-17T05:33:10.838Z,1.73
2023-03-17T05:35:39.195Z,1.70
2023-03-17T05:38:06.939Z,1.80
2023-03-17T05:40:34.594Z,1.58
2023-03-17T05:43:02.178Z,1.42
2023-03-17T05:45:30.202Z,1.65
2023-03-17T05:47:57.643Z,1.88
2023-03-17T05:50:26.047Z,1.60
2023-03-17T05:52:53.574Z,1.95
2023-03-17T05:55:21.062Z,1.80
2023-03-17T05:57:48.039Z,1.70
2023-03-17T06:00:24.894Z,1.77
2023-03-17T06:02:51.904Z,1.58
2023-03-17T06:05:18.923Z,1.58
2023-03-17T06:07:54.627Z,2.10
2023-03-17T06:10:24.184Z,1.60
2023-03-17T06:12:51.529Z,1.50
2023-03-17T06:15:19.130Z,1.95
2023-03-17T06:17:46.266Z,1.55
2023-03-17T06:20:15.645Z,1.70
2023-03-17T06:23:00.459Z,1.50
2023-03-17T06:25:30.962Z,2.15
2023-03-17T06:27:58.347Z,1.52
2023-03-17T06:30:25.480Z,2.20
2023-03-17T06:32:52.950Z,1.55
2023-03-17T06:35:21.071Z,1.63
2023-03-17T06:37:49.231Z,2.33
2023-03-17T06:40:16.952Z,1.50
2023-03-17T06:42:45.406Z,1.73
2023-03-17T06:45:13.055Z,2.08
2023-03-17T06:47:40.187Z,1.63
2023-03-17T06:50:12.596Z,1.88
2023-03-17T06:52:41.085Z,1.60
2023-03-17T06:55:09.365Z,1.40
2023-03-17T06:57:36.722Z,1.60
2023-03-17T07:00:06.738Z,1.70
2023-03-17T07:02:35.109Z,1.67
2023-03-17T07:05:04.528Z,1.80
2023-03-17T07:07:31.781Z,1.50
2023-03-17T07:10:00.990Z,1.80
2023-03-17T07:12:29.041Z,2.22
2023-03-17T07:14:56.921Z,2.13
2023-03-17T07:17:24.150Z,2.20
2023-03-17T07:19:53.204Z,1.50
2023-03-17T07:22:21.056Z,1.60
2023-03-17T07:24:50.976Z,1.70
2023-03-17T07:27:23.214Z,1.50
2023-03-17T07:29:51.869Z,1.90
2023-03-17T07:32:19.751Z,1.80
2023-03-17T07:34:47.505Z,1.95
2023-03-17T07:37:16.172Z,1.65
2023-03-17T07:39:45.078Z,2.03
2023-03-17T07:42:16.307Z,1.70
2023-03-17T07:44:44.761Z,1.65
2023-03-17T07:47:14.129Z,1.90
2023-03-17T07:49:42.532Z,2.42
2023-03-17T07:52:11.437Z,1.20
2023-03-17T07:54:42.961Z,1.73
2023-03-17T07:57:11.687Z,2.50
2023-03-17T07:59:41.762Z,1.85
2023-03-17T08:02:15.849Z,2.63
2023-03-17T08:04:44.120Z,1.45
2023-03-17T08:07:14.981Z,2.30
2023-03-17T08:09:42.426Z,1.85
2023-03-17T08:12:11.167Z,1.58
2023-03-17T08:14:39.110Z,1.60
2023-03-17T08:17:09.768Z,1.63
2023-03-17T08:19:37.523Z,1.67
2023-03-17T08:22:05.336Z,1.80
2023-03-17T08:24:32.714Z,1.92
2023-03-17T08:27:00.968Z,1.50
2023-03-17T08:29:31.291Z,1.85
2023-03-17T08:31:58.698Z,2.05
2023-03-17T08:34:26.460Z,1.73
2023-03-17T08:36:53.576Z,1.55
2023-03-17T08:39:24.094Z,1.75
2023-03-17T08:41:52.139Z,1.50
2023-03-17T08:44:19.725Z,2.22
2023-03-17T08:46:49.571Z,2.13
2023-03-17T08:49:17.177Z,1.83
2023-03-17T08:51:45.235Z,1.63
2023-03-17T08:54:12.792Z,2.10
2023-03-17T08:56:48.505Z,1.73
2023-03-17T08:59:17.148Z,1.98
2023-03-17T09:01:47.617Z,2.15
2023-03-17T09:04:16.368Z,2.05
2023-03-17T09:07:01.301Z,1.90
2023-03-17T09:09:38.840Z,1.70
2023-03-17T09:12:08.303Z,1.88
2023-03-17T09:14:43.785Z,1.88
2023-03-17T09:17:13.908Z,1.75
2023-03-17T09:19:42.003Z,1.80
2023-03-17T09:22:14.632Z,1.92
2023-03-17T09:24:44.796Z,2.70
2023-03-17T09:27:12.948Z,1.70
2023-03-17T09:29:46.407Z,1.60
2023-03-17T09:32:14.022Z,1.50
2023-03-17T09:34:42.346Z,2.05
2023-03-17T09:37:11.886Z,1.65
2023-03-17T09:39:40.156Z,2.20
2023-03-17T09:42:36.424Z,1.95
2023-03-17T09:45:39.813Z,1.70
2023-03-17T09:48:33.288Z,1.98
2023-03-17T09:51:09.175Z,1.85
2023-03-17T09:54:10.849Z,1.65
2023-03-17T09:56:42.368Z,1.70
2023-03-17T09:59:34.491Z,1.63
2023-03-17T10:02:02.425Z,2.22
2023-03-17T10:04:32.089Z,1.83
2023-03-17T10:07:04.956Z,2.08
2023-03-17T10:09:50.438Z,2.10
2023-03-17T10:12:49.436Z,2.13
2023-03-17T10:15:25.493Z,2.05
2023-03-17T10:17:53.977Z,1.73
2023-03-17T10:20:28.400Z,1.80
2023-03-17T10:23:02.706Z,1.80
2023-03-17T10:25:33.355Z,1.50
2023-03-17T10:28:08.763Z,1.50
2023-03-17T10:30:36.030Z,1.63
2023-03-17T10:33:07.332Z,1.73
2023-03-17T10:35:36.655Z,1.77
2023-03-17T10:38:21.640Z,1.50
2023-03-17T10:41:02.824Z,1.80
2023-03-17T10:43:38.980Z,1.98
2023-03-17T10:46:18.258Z,1.60
2023-03-17T10:49:08.803Z,1.90
2023-03-17T10:51:41.052Z,1.70
2023-03-17T10:56:42.558Z,1.85
2023-03-17T10:59:20.113Z,1.65
2023-03-17T11:01:53.010Z,2.22
2023-03-17T11:04:36.692Z,2.13
2023-03-17T11:07:29.552Z,1.77
2023-03-17T11:10:01.821Z,2.00
2023-03-17T11:15:11.400Z,1.52
2023-03-17T11:18:11.720Z,1.63
2023-03-17T11:21:08.752Z,1.80
2023-03-17T11:23:53.082Z,1.75
2023-03-17T11:26:48.484Z,2.20
2023-03-17T11:29:51.911Z,1.67
2023-03-17T11:32:31.638Z,1.65
2023-03-17T11:35:18.628Z,1.52
2023-03-17T11:38:07.842Z,1.70
2023-03-17T11:41:15.305Z,1.73
2023-03-17T11:44:10.938Z,1.55
2023-03-17T11:46:50.168Z,1.67
2023-03-17T11:49:22.389Z,1.35
2023-03-17T11:54:42.666Z,1.52
2023-03-17T11:57:23.016Z,1.50
2023-03-17T12:00:25.923Z,1.20
2023-03-17T12:02:58.643Z,1.38
2023-03-17T12:05:28.659Z,1.40
2023-03-17T12:08:05.090Z,1.55
2023-03-17T12:10:41.633Z,1.55
2023-03-17T12:13:22.288Z,1.85
2023-03-17T12:16:11.065Z,1.40
2023-03-17T12:18:46.444Z,1.42
2023-03-17T12:22:03.324Z,1.60
2023-03-17T12:24:44.362Z,1.50
2023-03-17T12:27:27.343Z,1.45
2023-03-17T12:30:32.435Z,1.58
2023-03-17T12:33:13.076Z,1.50
2023-03-17T12:35:41.717Z,1.33
2023-03-17T12:38:24.948Z,1.50
2023-03-17T12:41:21.393Z,1.52
2023-03-17T12:44:22.655Z,1.45
2023-03-17T12:47:08.271Z,1.50
2023-03-17T12:49:52.833Z,1.40
2023-03-17T12:52:43.181Z,1.20
2023-03-17T12:55:15.498Z,1.23
2023-03-17T12:57:46.308Z,1.15
2023-03-17T13:00:29.982Z,1.52
2023-03-17T13:06:08.710Z,1.00
2023-03-17T13:08:42.419Z,1.08
2023-03-17T13:11:40.940Z,1.55
2023-03-17T13:14:24.828Z,1.10
2023-03-17T13:16:52.403Z,1.27
2023-03-17T13:19:29.128Z,1.45
2023-03-17T13:22:05.698Z,1.00
2023-03-17T13:24:56.262Z,1.17
2023-03-17T13:27:35.226Z,1.42
2023-03-17T13:30:29.732Z,1.45
2023-03-17T13:33:00.684Z,1.70
2023-03-17T13:35:48.583Z,1.40
2023-03-17T13:38:38.046Z,1.23
2023-03-17T13:41:23.585Z,0.95
2023-03-17T13:44:06.392Z,1.33
2023-03-17T13:46:37.174Z,1.65
2023-03-17T13:49:16.639Z,1.10
2023-03-17T13:51:59.541Z,1.20
2023-03-17T13:54:30.870Z,1.83
2023-03-17T13:57:00.428Z,1.33
2023-03-17T13:59:49.208Z,1.65
2023-03-17T14:02:19.585Z,1.33
2023-03-17T14:04:55.196Z,1.05
2023-03-17T14:07:30.770Z,1.63
2023-03-17T14:10:05.175Z,1.20
2023-03-17T14:12:39.612Z,1.50
2023-03-17T14:15:30.692Z,1.65
2023-03-17T14:18:16.599Z,0.82
2023-03-17T14:20:58.795Z,1.20
2023-03-17T14:23:27.017Z,1.13
2023-03-17T14:26:03.126Z,1.25
2023-03-17T14:28:34.765Z,1.20
2023-03-17T14:31:08.296Z,1.07
2023-03-17T14:33:41.698Z,1.42
2023-03-17T14:36:14.375Z,1.27
2023-03-17T14:38:55.315Z,1.17
2023-03-17T14:41:28.122Z,1.40
2023-03-17T14:44:01.582Z,1.10
2023-03-17T14:46:38.613Z,1.10
2023-03-17T14:49:15.144Z,1.23
2023-03-17T14:51:51.093Z,1.33
2023-03-17T14:54:28.681Z,1.30
2023-03-17T14:57:03.332Z,0.90
2023-03-17T14:59:38.881Z,1.30
2023-03-17T15:02:16.528Z,0.80
2023-03-17T15:05:01.638Z,1.25
2023-03-17T15:07:40.678Z,0.98
2023-03-17T15:10:24.637Z,0.95
2023-03-17T15:13:01.914Z,1.50
2023-03-17T15:15:35.886Z,1.30
2023-03-17T15:18:23.616Z,1.27
2023-03-17T15:20:51.003Z,2.20
2023-03-17T15:23:27.509Z,2.60
2023-03-17T15:25:56.477Z,2.72
2023-03-17T15:28:32.016Z,2.47
2023-03-17T15:31:13.084Z,3.40
2023-03-17T15:33:42.396Z,2.90
2023-03-17T15:36:29.284Z,2.67
2023-03-17T15:38:58.202Z,1.90
2023-03-17T15:41:25.404Z,1.70
2023-03-17T15:43:52.435Z,1.80
2023-03-17T15:46:30.936Z,2.10
2023-03-17T15:48:58.707Z,1.35
2023-03-17T15:51:26.029Z,1.27
2023-03-17T15:53:56.019Z,1.35
2023-03-17T15:56:23.182Z,1.23
2023-03-17T15:58:52.543Z,0.95
2023-03-17T16:01:20.847Z,1.85
2023-03-17T16:03:48.908Z,1.70
2023-03-17T16:06:18.949Z,1.20
2023-03-17T16:08:46.543Z,1.40
2023-03-17T16:11:19.564Z,1.80
2023-03-17T16:13:47.911Z,1.20
2023-03-17T16:16:25.530Z,1.70
2023-03-17T16:18:54.520Z,2.05
2023-03-17T16:21:21.769Z,1.58
2023-03-17T16:23:49.690Z,2.33
2023-03-17T16:26:17.672Z,1.52
2023-03-17T16:28:50.144Z,1.92
2023-03-17T16:31:24.607Z,1.33
2023-03-17T16:33:54.620Z,1.38
2023-03-17T16:36:23.119Z,1.15
2023-03-17T16:38:51.073Z,1.20
2023-03-17T16:41:29.445Z,1.15
2023-03-17T16:44:02.533Z,1.00
2023-03-17T16:46:35.184Z,1.35
2023-03-17T16:49:04.262Z,1.52
2023-03-17T16:51:32.092Z,1.45
2023-03-17T16:53:59.238Z,1.50
2023-03-17T16:56:27.956Z,1.33
2023-03-17T16:58:55.047Z,1.75
2023-03-17T17:01:25.970Z,2.83
2023-03-17T17:03:53.717Z,2.83
2023-03-17T17:06:22.685Z,1.50
2023-03-17T17:08:51.257Z,1.30
2023-03-17T17:11:20.565Z,1.40
2023-03-17T17:13:50.228Z,1.33
2023-03-17T17:16:31.138Z,1.25
2023-03-17T17:18:59.309Z,1.33
2023-03-17T17:21:31.124Z,1.10
2023-03-17T17:23:59.008Z,1.40
2023-03-17T17:26:26.299Z,1.17
2023-03-17T17:28:53.387Z,1.48
2023-03-17T17:31:20.506Z,1.80
2023-03-17T17:33:47.564Z,1.00
2023-03-17T17:36:18.731Z,1.10
2023-03-17T17:38:46.059Z,1.10
2023-03-17T17:41:14.254Z,1.80
2023-03-17T17:43:41.425Z,1.48
2023-03-17T17:46:21.360Z,1.35
2023-03-17T17:48:48.860Z,1.42
2023-03-17T17:51:16.344Z,1.60
2023-03-17T17:53:43.747Z,1.42
2023-03-17T17:56:16.068Z,1.63
2023-03-17T18:01:14.350Z,1.95
2023-03-17T18:03:43.038Z,2.00
2023-03-17T18:06:11.402Z,1.77
2023-03-17T18:08:38.693Z,1.70
2023-03-17T18:11:06.282Z,1.70
2023-03-17T18:13:36.498Z,1.70
2023-03-17T18:16:04.219Z,1.48
2023-03-17T18:18:32.632Z,1.83
2023-03-17T18:20:59.963Z,1.70
2023-03-17T18:23:30.231Z,1.38
2023-03-17T18:26:02.958Z,1.77
2023-03-17T18:28:31.025Z,1.77
2023-03-17T18:31:04.891Z,1.70
2023-03-17T18:33:33.789Z,2.50
2023-03-17T18:36:01.057Z,2.30
2023-03-17T18:38:28.121Z,2.42
2023-03-17T18:40:55.487Z,1.88
2023-03-17T18:43:22.490Z,2.25
2023-03-17T18:45:49.554Z,2.08
2023-03-17T18:48:16.924Z,2.58
2023-03-17T18:50:43.942Z,1.80
2023-03-17T18:53:11.221Z,2.17
2023-03-17T18:55:38.278Z,2.30
2023-03-17T18:58:06.377Z,2.50
2023-03-17T19:00:34.100Z,2.53
2023-03-17T19:03:01.627Z,2.10
2023-03-17T19:05:29.169Z,2.38
2023-03-17T19:07:56.482Z,2.30
2023-03-17T19:10:23.468Z,1.95
2023-03-17T19:12:52.484Z,2.22
2023-03-17T19:15:19.706Z,2.40
2023-03-17T19:17:47.392Z,2.13
2023-03-17T19:20:14.671Z,2.17
2023-03-17T19:22:42.304Z,2.40
2023-03-17T19:25:09.838Z,2.38
2023-03-17T19:27:38.688Z,2.65
2023-03-17T19:30:07.150Z,2.05
2023-03-17T19:32:34.174Z,2.38
2023-03-17T19:35:01.432Z,2.80
2023-03-17T19:37:29.775Z,2.85
2023-03-17T19:39:56.711Z,3.50
2023-03-17T19:42:23.908Z,2.38
2023-03-17T19:44:51.005Z,2.53
2023-03-17T19:47:19.314Z,3.20
2023-03-17T19:49:47.081Z,3.08
2023-03-17T19:52:16.018Z,2.53
2023-03-17T19:54:46.037Z,3.53
2023-03-17T19:57:13.904Z,3.35
2023-03-17T19:59:42.059Z,2.97
2023-03-17T20:02:15.274Z,2.30
2023-03-17T20:04:43.061Z,3.25
2023-03-17T20:07:10.356Z,3.65
2023-03-17T20:09:38.080Z,3.00
2023-03-17T20:12:05.436Z,3.05
2023-03-17T20:14:32.586Z,3.22
2023-03-17T20:17:00.805Z,3.85
2023-03-17T20:19:28.052Z,4.55
2023-03-17T20:21:55.446Z,4.20
2023-03-17T20:24:23.754Z,3.30
2023-03-17T20:26:51.740Z,3.25
2023-03-17T20:29:18.732Z,3.83
2023-03-17T20:31:45.706Z,3.85
2023-03-17T20:34:13.967Z,4.07
2023-03-17T20:36:42.569Z,4.35
2023-03-17T20:39:14.869Z,4.68
2023-03-17T20:41:43.300Z,5.68
2023-03-17T20:44:10.383Z,5.88
2023-03-17T20:46:37.483Z,6.07
2023-03-17T20:49:08.746Z,6.05
2023-03-17T20:51:35.851Z,7.28
2023-03-17T20:54:03.005Z,6.47
2023-03-17T20:56:33.998Z,6.88
2023-03-17T20:59:05.312Z,7.47
2023-03-17T21:01:37.119Z,7.28
2023-03-17T21:04:09.289Z,7.15
2023-03-17T21:09:04.838Z,7.40
2023-03-17T21:11:31.913Z,7.22
2023-03-17T21:13:59.249Z,8.20
2023-03-17T21:16:28.586Z,7.97
2023-03-17T21:18:56.039Z,7.90
2023-03-17T21:21:23.645Z,7.65
2023-03-17T21:23:51.179Z,8.40
2023-03-17T21:26:18.821Z,8.38
2023-03-17T21:28:46.584Z,8.23
2023-03-17T21:31:15.004Z,8.10
2023-03-17T21:33:42.536Z,8.27
2023-03-17T21:36:11.233Z,8.45
2023-03-17T21:38:38.245Z,8.40
2023-03-17T21:41:33.190Z,8.30
2023-03-17T21:44:01.377Z,7.68
2023-03-17T21:46:29.680Z,9.02
2023-03-17T21:48:57.660Z,7.47
2023-03-17T21:51:25.790Z,8.40
2023-03-17T21:53:53.441Z,7.65
2023-03-17T21:56:21.546Z,8.85
2023-03-17T21:58:50.811Z,9.13
2023-03-17T22:01:20.742Z,9.45
2023-03-17T22:03:48.963Z,8.98
2023-03-17T22:06:17.132Z,9.43
2023-03-17T22:08:44.580Z,10.25
2023-03-17T22:11:15.793Z,9.18
2023-03-17T22:13:43.844Z,8.65
2023-03-17T22:16:12.109Z,7.78
2023-03-17T22:18:39.809Z,8.27
2023-03-17T22:21:11.003Z,8.68
2023-03-17T22:23:42.308Z,10.20
2023-03-17T22:26:14.167Z,8.10
2023-03-17T22:28:42.146Z,8.35
2023-03-17T22:31:19.146Z,7.50
2023-03-17T22:33:47.620Z,8.65
2023-03-17T22:36:15.114Z,7.85
2023-03-17T22:38:42.901Z,8.48
2023-03-17T22:41:13.815Z,9.38
2023-03-17T22:43:42.442Z,9.40
2023-03-17T22:46:10.655Z,9.15
2023-03-17T22:48:37.732Z,9.57
2023-03-17T22:51:07.241Z,8.65
2023-03-17T22:53:34.904Z,9.25
2023-03-17T22:56:04.831Z,9.18
2023-03-17T22:58:33.258Z,9.20
2023-03-17T23:01:01.324Z,9.55
2023-03-17T23:03:30.823Z,9.20
2023-03-17T23:05:59.881Z,9.48
2023-03-17T23:08:32.399Z,9.43
2023-03-17T23:11:01.857Z,9.40
2023-03-17T23:13:30.456Z,9.38
2023-03-17T23:15:57.570Z,8.65
2023-03-17T23:18:24.892Z,9.10
2023-03-17T23:20:53.566Z,8.95
2023-03-17T23:23:20.777Z,9.43
2023-03-17T23:25:47.755Z,10.18
2023-03-17T23:28:15.612Z,8.77
2023-03-17T23:30:44.060Z,9.02
2023-03-17T23:33:11.494Z,8.25
2023-03-17T23:35:38.871Z,8.82
2023-03-17T23:38:06.202Z,8.63
2023-03-17T23:40:34.730Z,9.07
2023-03-17T23:43:02.554Z,8.68
2023-03-17T23:45:29.555Z,9.13
2023-03-17T23:47:57.618Z,8.77
2023-03-17T23:50:24.718Z,9.75
2023-03-17T23:52:54.174Z,8.75
2023-03-17T23:55:21.194Z,8.52
2023-03-17T23:57:48.206Z,10.40
